Aktualne dane pomiarowe

Uwaga, wersja testowa! Automatyczne pobieranie danych za pomocą narzędzi lub skryptów to umożliwiających jest zabronione.

Dane meteo z obszaru Polski uzyskane na podstawie depesz SYNOP pobieranych co godzinę z NWS. Najedź myszką na symbol przedstawiony w tabeli, aby uzyskać informacje co do jego znaczenia. Prosimy pamiętać, że to testowa wersja strony, która jeszcze nie jest ukończona. Stworzono również jest krótki FAQ dotyczący korzystania z tej podstrony Anomalie temperatury w chwili obecnej odniesione są do okresu referencyjnego 1951-2016. Okres ten będzie później zmieniony na 1981-2010. Kliknij ikonę aby pobrać plik CSV. Kliknij ikonę aby wygenerować mapę synoptyczną dla danego terminu.

Wybierz Datę:    

        

Racibórz (12540)

Dane terminowe dla wybranej stacji. Kliknij datę, aby otrzymać dane z tego terminu dla wszystkich stacji.

TemperaturaZachmurzenieWiatrCiśnienieOpadyPogoda
 Data t td wb tx tn tg rh  Nt Nl Cl Cm Ch ws wd g1 g2 wx mslp ppp ch 24h 12h t ww ww w1 w2  
2019-06-22 23:00:00 20.2 13.6 15.9--- 6650.0wxwxwxwx3wx--31018.5 994.3 0.2---------
2019-06-22 22:00:00 21.0 14.4 16.7--- 6650.0wx-wx3wx--31018.3 994.2 0.3---------
2019-06-22 21:00:00 21.8 14.4 17.0--- 6350.0wxwxwxwx4wx--41018.1 994.1 0.2---------
2019-06-22 20:00:00 21.9 15.0 17.4--- 6540.0wxwxwxwx2wx--21018.1 994.1 0.0---------
2019-06-22 19:00:00 22.7 15.0 17.7--- 6240.0wxwxwx2wx--21017.9 993.9 -0.3---------
2019-06-22 18:00:00 22.7 15.5 18.0 26.3 19.4- 6435.0wxwxwxwx2wx-921017.9 993.9 -0.7--12wx-w1--
2019-06-22 17:00:00 24.0 14.4 17.9--- 5535.0wxwxwxwx2wx--21018.0 994.1 -0.8---------
2019-06-22 16:00:00 24.1 13.9 17.7--- 5340.0wxwxwxwx3wx--31018.0 994.2 -1.3---wx---
2019-06-22 15:00:00 26.1 14.2 18.6--- 4830.0wxwxwxwx3wx-931018.3 994.6 -1.7---------
2019-06-22 14:00:00 25.8 14.6 18.7--- 5028.0wxwxwxwx4wx9941018.6 994.9 -1.7---------
2019-06-22 13:00:00 24.9 13.8 17.9--- 5040.0wxwxwxwxwx5wx-951019.3 995.5 -1.4---------
2019-06-22 12:00:00 23.9 14.3 17.8--- 5528.0wxwxwxwx3wx-831020.2 996.3 -0.7- 0.06------
2019-06-22 11:00:00 23.7 15.2 18.2--- 5930.0wxwxwxwx4wx---1020.5 996.6 -0.2---------
2019-06-22 10:00:00 23.1 14.4 17.5--- 5830.0wxwxwxwx4wx-841020.9 996.9 0.1---------
2019-06-22 09:00:00 22.4 16.0 18.1--- 6723.0wxwxwxwx4wx--41021.1 997.0 0.3---------
2019-06-22 08:00:00 21.8 16.7 18.3--- 7323.0wxwxwxwx3wx--31020.9 996.8 0.3---------
2019-06-22 07:00:00 20.4 16.2 17.5--- 7720.0wxwxwxwxwx3wx--31021.0 996.8 0.6---------
2019-06-22 06:00:00 19.4 15.9 17.0 22.8 14.7 14 8020.0wxwxwxwxwx3wx--31021.0 996.7 1.0- 0.012----- 11.4
2019-06-22 05:00:00 18.0 16.0 16.6--- 8813.0wxwxwxwx3wx--31020.9 996.5 1.5---------
2019-06-22 04:00:00 16.6 15.6 15.9--- 947.0wxwxwxwx2wx--21020.7 996.2 1.2---wx---
2019-06-22 03:00:00 15.0 14.0 14.3--- 946.0wx-wxwx2wx--21020.4 995.7 0.9---wx---
2019-06-22 02:00:00 15.1 14.3 14.5--- 956.0wx-wxwx2wx--21019.6 995.0 0.4---wx---
2019-06-22 01:00:00 14.7 13.9 14.1--- 953.4wx-wx2wx--21019.7 995.0 0.6---wx---
2019-06-22 00:00:00 15.5 14.5 14.8--- 946.0wx-wx1wx--11019.4 994.8 0.8- 0.06wx---
2019-06-21 23:00:00 15.8 14.7 15.0--- 936.0wx-wx1wx--11019.2 994.6 1.2---wx---
2019-06-21 22:00:00 16.6 14.8 15.3--- 8912.0wx-wxwx1wx--11018.9 994.4 1.2---------
2019-06-21 21:00:00 17.4 15.9 16.3--- 9118.0wxwxwxwxwx2wx--21018.4 994.0 1.2---------
2019-06-21 20:00:00 18.8 15.7 16.6--- 8240.0wxwxwxwxwx2wx--21017.7 993.4 1.1---------
2019-06-21 19:00:00 21.1 16.1 17.7--- 7345.0wxwxwxwxwx1wx--11017.3 993.2 1.0---------
2019-06-21 18:00:00 22.5 16.1 18.2 25.4 20.5- 6740.0wxwxwxwxwx2wx--21016.7 992.8 1.0- 0.012------
2019-06-21 17:00:00 22.8 15.4 18.0--- 6340.0wxwxwxwx4wx---1016.2 992.3 0.2---------
2019-06-21 16:00:00 22.6 15.7 18.0--- 6540.0wxwxwxwxwx5wx--51016.1 992.2 0.1---------
2019-06-21 15:00:00 23.1 17.1 19.0--- 6940.0wxwxwxwxwx6wx---1015.7 991.8 0.1---------
2019-06-21 14:00:00 23.5 16.0 18.6--- 6335.0wxwxwxwx5wx--51015.9 992.1 0.2---------
2019-06-21 13:00:00 24.0 16.0 18.7--- 6135.0wxwxwxwx7wx--71015.9 992.1 0.2---------
2019-06-21 12:00:00 23.9 16.9 19.2--- 6527.0wxwxwxwxwx7wx--71015.5 991.7 -0.3- 0.06------
2019-06-21 11:00:00 24.3 16.8 19.3--- 6330.0wxwxwxwx6wx---1015.7 991.9 0.2---------
2019-06-21 10:00:00 24.2 17.2 19.5--- 6529.0wxwxwxwx4wx---1015.7 991.9 0.6---------
2019-06-21 09:00:00 23.9 17.4 19.5--- 6728.0wxwxwxwxwx2wx--21015.8 992.0 0.9---------
2019-06-21 08:00:00 23.2 17.0 19.0--- 6826.0wxwxwxwxwx2wx--21015.6 991.7 1.0---------
2019-06-21 07:00:00 22.2 17.1 18.7--- 7329.0wx-wxwx2wx--21015.2 991.3 0.8---------
2019-06-21 06:00:00 20.5 15.3 17.0 20.7 15.5 14 7230.0wx-wxwx1wx--11015.2 991.1 1.0 3.0 0.312----- 5.8
2019-06-21 05:00:00 18.9 15.8 16.7--- 8220.0wxwxwxwxwx1wx--11014.9 990.7 1.0---------
2019-06-21 04:00:00 16.5 14.9 15.4--- 9015.0wx-wxwx2wx--21014.9 990.5 1.2---------
2019-06-21 03:00:00 15.8 14.0 14.5--- 8920.0wxwxwxwxwx2wx--21014.5 990.1 1.0---------
2019-06-21 02:00:00 15.8 14.5 14.9--- 9215.0wxwxwxwxwx3wx--31014.1 989.7 0.6---------
2019-06-21 01:00:00 16.1 14.6 15.0--- 9115.0wx-wxwx1wx--11013.7 989.3 0.1---------
2019-06-21 00:00:00 16.8 14.8 15.4--- 8815.0wx-wxwx1wx--11013.4 989.1 0.4- 0.36wx-w1--
1.2 ms

 

Print Friendly, PDF & Email